createdAt,value
2022-08-04T00:02:48.047Z,2.00
2022-08-04T00:05:46.499Z,2.00
2022-08-04T00:08:38.870Z,1.70
2022-08-04T00:11:09.097Z,2.03
2022-08-04T00:14:03.552Z,1.73
2022-08-04T00:16:37.694Z,1.77
2022-08-04T00:19:13.033Z,2.38
2022-08-04T00:21:51.591Z,2.00
2022-08-04T00:24:22.166Z,2.30
2022-08-04T00:26:53.528Z,2.08
2022-08-04T00:29:22.701Z,2.35
2022-08-04T00:31:55.870Z,2.10
2022-08-04T00:34:29.463Z,1.92
2022-08-04T00:36:58.712Z,2.15
2022-08-04T00:39:26.614Z,1.95
2022-08-04T00:42:13.877Z,2.20
2022-08-04T00:45:07.301Z,2.10
2022-08-04T00:48:19.335Z,1.60
2022-08-04T00:51:04.052Z,2.33
2022-08-04T00:53:54.321Z,2.33
2022-08-04T00:56:50.301Z,1.80
2022-08-04T00:59:41.188Z,2.08
2022-08-04T01:02:31.515Z,2.00
2022-08-04T01:05:37.554Z,2.08
2022-08-04T01:08:23.647Z,2.00
2022-08-04T01:11:21.190Z,1.92
2022-08-04T01:14:08.616Z,1.88
2022-08-04T01:16:48.362Z,1.80
2022-08-04T01:19:43.182Z,2.08
2022-08-04T01:22:31.565Z,1.80
2022-08-04T01:25:46.642Z,2.38
2022-08-04T01:28:25.768Z,1.83
2022-08-04T01:30:58.389Z,1.73
2022-08-04T01:33:30.432Z,1.73
2022-08-04T01:36:04.878Z,1.98
2022-08-04T01:38:37.081Z,2.30
2022-08-04T01:41:13.867Z,1.58
2022-08-04T01:43:44.390Z,1.98
2022-08-04T01:46:14.918Z,2.03
2022-08-04T01:48:48.015Z,2.00
2022-08-04T01:51:15.461Z,1.65
2022-08-04T01:53:44.200Z,2.10
2022-08-04T01:56:12.423Z,2.25
2022-08-04T01:58:41.006Z,2.00
2022-08-04T02:01:11.553Z,1.70
2022-08-04T02:04:21.228Z,2.17
2022-08-04T02:06:58.256Z,2.00
2022-08-04T02:09:55.004Z,2.05
2022-08-04T02:12:43.637Z,1.77
2022-08-04T02:15:51.847Z,2.10
2022-08-04T02:18:25.030Z,2.03
2022-08-04T02:21:02.754Z,2.03
2022-08-04T02:23:37.238Z,2.05
2022-08-04T02:26:28.249Z,2.30
2022-08-04T02:29:19.485Z,2.00
2022-08-04T02:32:00.510Z,2.17
2022-08-04T02:34:36.629Z,2.30
2022-08-04T02:37:04.967Z,2.08
2022-08-04T02:39:48.015Z,2.08
2022-08-04T02:42:17.409Z,2.58
2022-08-04T02:44:58.143Z,2.03
2022-08-04T02:48:23.647Z,2.10
2022-08-04T02:50:28.583Z,2.38
2022-08-04T02:53:00.723Z,2.35
2022-08-04T02:55:29.942Z,2.10
2022-08-04T02:57:59.536Z,2.05
2022-08-04T03:00:26.846Z,2.58
2022-08-04T03:03:09.473Z,2.10
2022-08-04T03:06:01.285Z,2.30
2022-08-04T03:08:54.168Z,2.03
2022-08-04T03:11:39.927Z,2.67
2022-08-04T03:14:45.942Z,2.90
2022-08-04T03:17:28.277Z,3.30
2022-08-04T03:20:10.603Z,2.70
2022-08-04T03:23:13.601Z,2.95
2022-08-04T03:25:56.523Z,2.90
2022-08-04T03:28:48.902Z,2.45
2022-08-04T03:31:54.496Z,3.00
2022-08-04T03:34:58.579Z,2.30
2022-08-04T03:37:47.450Z,2.67
2022-08-04T03:40:36.533Z,2.90
2022-08-04T03:43:56.836Z,3.28
2022-08-04T03:46:24.442Z,3.42
2022-08-04T03:49:10.563Z,2.92
2022-08-04T03:52:14.562Z,2.95
2022-08-04T03:55:03.383Z,2.88
2022-08-04T03:58:00.732Z,3.45
2022-08-04T04:00:37.050Z,2.72
2022-08-04T04:03:29.290Z,3.47
2022-08-04T04:06:23.881Z,3.08
2022-08-04T04:09:28.752Z,2.83
2022-08-04T04:12:43.215Z,3.45
2022-08-04T04:15:20.895Z,3.58
2022-08-04T04:18:31.345Z,3.50
2022-08-04T04:21:19.985Z,4.43
2022-08-04T04:24:24.767Z,3.25
2022-08-04T04:27:22.956Z,3.97
2022-08-04T04:29:50.591Z,3.95
2022-08-04T04:32:59.802Z,3.50
2022-08-04T04:35:50.731Z,3.28
2022-08-04T04:38:49.895Z,3.95
2022-08-04T04:41:48.143Z,4.30
2022-08-04T04:44:28.734Z,3.92
2022-08-04T04:47:00.857Z,5.15
2022-08-04T04:49:46.719Z,4.18
2022-08-04T04:52:26.744Z,4.15
2022-08-04T04:55:24.973Z,4.63
2022-08-04T04:57:56.710Z,4.75
2022-08-04T05:00:44.590Z,4.05
2022-08-04T05:03:34.303Z,4.28
2022-08-04T05:06:15.318Z,4.10
2022-08-04T05:09:18.224Z,4.25
2022-08-04T05:11:48.279Z,5.50
2022-08-04T05:14:41.215Z,4.20
2022-08-04T05:17:28.103Z,4.28
2022-08-04T05:20:19.074Z,4.32
2022-08-04T05:22:46.259Z,4.65
2022-08-04T05:25:40.900Z,4.30
2022-08-04T05:28:22.701Z,4.32
2022-08-04T05:30:59.178Z,4.38
2022-08-04T05:33:32.788Z,3.95
2022-08-04T05:36:20.707Z,6.57
2022-08-04T05:39:00.010Z,4.57
2022-08-04T05:41:44.717Z,4.68
2022-08-04T05:44:16.774Z,4.30
2022-08-04T05:46:53.638Z,4.20
2022-08-04T05:49:27.639Z,4.57
2022-08-04T05:52:06.678Z,4.75
2022-08-04T05:54:37.954Z,4.18
2022-08-04T05:57:07.197Z,4.28
2022-08-04T05:59:38.987Z,3.65
2022-08-04T06:02:09.707Z,3.67
2022-08-04T06:04:42.738Z,3.92
2022-08-04T06:07:11.475Z,3.75
2022-08-04T06:09:38.816Z,4.32
2022-08-04T06:12:09.627Z,3.70
2022-08-04T06:14:44.662Z,4.38
2022-08-04T06:18:33.367Z,3.70
2022-08-04T06:20:19.778Z,3.97
2022-08-04T06:22:55.711Z,4.43
2022-08-04T06:25:28.251Z,4.47
2022-08-04T06:27:56.457Z,3.83
2022-08-04T06:30:27.445Z,4.88
2022-08-04T06:35:34.032Z,3.83
2022-08-04T06:38:03.170Z,4.57
2022-08-04T06:40:33.688Z,4.13
2022-08-04T06:43:04.864Z,5.10
2022-08-04T06:51:32.186Z,3.97
2022-08-04T06:53:20.501Z,4.20
2022-08-04T06:55:49.976Z,4.22
2022-08-04T06:58:20.288Z,3.65
2022-08-04T07:00:49.724Z,4.25
2022-08-04T07:03:19.007Z,4.57
2022-08-04T07:05:51.407Z,4.23
2022-08-04T07:08:19.989Z,4.78
2022-08-04T07:10:47.580Z,4.35
2022-08-04T07:13:16.849Z,4.28
2022-08-04T07:15:46.756Z,3.75
2022-08-04T07:18:14.346Z,4.47
2022-08-04T07:20:45.983Z,3.83
2022-08-04T07:23:17.777Z,3.70
2022-08-04T07:26:10.978Z,3.90
2022-08-04T07:28:41.031Z,3.97
2022-08-04T07:31:33.362Z,4.10
2022-08-04T07:34:17.725Z,3.88
2022-08-04T07:36:56.083Z,3.47
2022-08-04T07:39:28.634Z,3.50
2022-08-04T07:41:58.415Z,4.03
2022-08-04T07:44:26.386Z,3.45
2022-08-04T07:46:54.174Z,3.30
2022-08-04T07:49:55.064Z,3.42
2022-08-04T07:52:10.081Z,3.40
2022-08-04T07:54:39.929Z,3.58
2022-08-04T07:57:07.134Z,3.25
2022-08-04T07:59:36.138Z,3.17
2022-08-04T08:02:04.181Z,3.35
2022-08-04T08:04:32.450Z,3.42
2022-08-04T08:06:59.896Z,3.97
2022-08-04T08:09:27.178Z,4.25
2022-08-04T08:12:36.926Z,4.28
2022-08-04T08:14:43.729Z,3.65
2022-08-04T08:17:10.961Z,3.42
2022-08-04T08:19:38.573Z,3.63
2022-08-04T08:22:06.059Z,3.20
2022-08-04T08:24:37.127Z,3.33
2022-08-04T08:27:05.250Z,3.30
2022-08-04T08:29:36.289Z,3.00
2022-08-04T08:32:08.658Z,3.20
2022-08-04T08:34:38.647Z,2.88
2022-08-04T08:37:40.330Z,3.08
2022-08-04T08:40:40.225Z,2.83
2022-08-04T08:44:00.629Z,2.83
2022-08-04T08:46:55.674Z,2.58
2022-08-04T08:50:04.606Z,3.35
2022-08-04T08:53:01.175Z,3.08
2022-08-04T08:56:02.996Z,2.67
2022-08-04T08:58:54.784Z,2.72
2022-08-04T09:01:58.605Z,2.90
2022-08-04T09:05:02.464Z,4.32
2022-08-04T09:07:39.020Z,3.50
2022-08-04T09:10:10.969Z,4.15
2022-08-04T09:12:47.391Z,3.15
2022-08-04T09:15:59.536Z,3.38
2022-08-04T09:18:47.538Z,2.95
2022-08-04T09:21:33.862Z,2.92
2022-08-04T09:24:00.977Z,2.97
2022-08-04T09:26:37.528Z,3.00
2022-08-04T09:29:27.880Z,3.05
2022-08-04T09:32:08.849Z,3.45
2022-08-04T09:34:44.354Z,2.90
2022-08-04T09:37:31.958Z,3.80
2022-08-04T09:40:14.439Z,3.17
2022-08-04T09:42:48.521Z,3.08
2022-08-04T09:45:44.212Z,2.72
2022-08-04T09:48:32.735Z,3.22
2022-08-04T09:51:00.129Z,2.47
2022-08-04T09:53:50.159Z,3.20
2022-08-04T09:56:31.099Z,3.08
2022-08-04T09:59:14.151Z,2.83
2022-08-04T10:01:43.346Z,2.63
2022-08-04T10:04:14.991Z,3.00
2022-08-04T10:07:11.544Z,3.67
2022-08-04T10:10:23.570Z,2.65
2022-08-04T10:13:17.763Z,3.15
2022-08-04T10:15:45.084Z,3.42
2022-08-04T10:18:20.379Z,3.63
2022-08-04T10:21:15.173Z,3.00
2022-08-04T10:24:00.405Z,2.78
2022-08-04T10:26:42.554Z,2.80
2022-08-04T10:29:26.050Z,2.83
2022-08-04T10:32:09.477Z,2.65
2022-08-04T10:34:43.167Z,2.45
2022-08-04T10:37:59.814Z,2.67
2022-08-04T10:40:36.573Z,2.75
2022-08-04T10:43:22.478Z,2.40
2022-08-04T10:45:58.568Z,3.95
2022-08-04T10:48:47.838Z,3.10
2022-08-04T10:51:18.036Z,2.72
2022-08-04T10:53:50.132Z,3.40
2022-08-04T10:56:30.246Z,2.72
2022-08-04T10:59:04.212Z,3.00
2022-08-04T11:02:01.361Z,2.47
2022-08-04T11:04:47.678Z,2.70
2022-08-04T11:07:16.875Z,2.55
2022-08-04T11:09:45.482Z,2.70
2022-08-04T11:12:23.395Z,3.58
2022-08-04T11:14:58.180Z,3.30
2022-08-04T11:17:35.272Z,3.10
2022-08-04T11:20:34.961Z,2.60
2022-08-04T11:23:17.575Z,3.07
2022-08-04T11:26:03.198Z,3.10
2022-08-04T11:28:42.800Z,3.58
2022-08-04T11:31:17.977Z,3.38
2022-08-04T11:33:52.702Z,3.08
2022-08-04T11:36:26.412Z,3.30
2022-08-04T11:39:11.484Z,3.30
2022-08-04T11:42:04.760Z,3.17
2022-08-04T11:44:37.675Z,3.63
2022-08-04T11:47:11.438Z,3.65
2022-08-04T11:49:57.494Z,3.20
2022-08-04T11:52:28.349Z,4.20
2022-08-04T11:54:57.721Z,3.30
2022-08-04T11:57:35.653Z,3.90
2022-08-04T12:00:10.749Z,3.85
2022-08-04T12:02:49.915Z,3.97
2022-08-04T12:05:23.317Z,3.55
2022-08-04T12:08:11.241Z,3.70
2022-08-04T12:10:52.561Z,3.88
2022-08-04T12:13:44.829Z,3.92
2022-08-04T12:16:18.570Z,3.70
2022-08-04T12:18:53.283Z,3.22
2022-08-04T12:21:31.749Z,3.50
2022-08-04T12:24:08.709Z,3.63
2022-08-04T12:26:42.900Z,3.17
2022-08-04T12:29:15.267Z,3.45
2022-08-04T12:31:55.300Z,3.25
2022-08-04T12:34:55.198Z,3.55
2022-08-04T12:37:47.100Z,3.40
2022-08-04T12:40:30.047Z,3.22
2022-08-04T12:43:22.833Z,3.40
2022-08-04T12:45:53.237Z,3.08
2022-08-04T12:48:24.220Z,3.35
2022-08-04T12:50:56.941Z,3.53
2022-08-04T12:53:32.684Z,3.35
2022-08-04T12:56:02.497Z,3.20
2022-08-04T12:58:44.097Z,3.40
2022-08-04T13:02:08.773Z,3.45
2022-08-04T13:04:15.575Z,3.20
2022-08-04T13:06:44.678Z,3.50
2022-08-04T13:09:21.085Z,3.85
2022-08-04T13:11:52.910Z,3.50
2022-08-04T13:14:27.673Z,3.20
2022-08-04T13:17:02.753Z,3.72
2022-08-04T13:19:31.587Z,4.45
2022-08-04T13:22:09.372Z,3.08
2022-08-04T13:24:56.295Z,3.88
2022-08-04T13:27:25.887Z,3.63
2022-08-04T13:30:00.043Z,3.92
2022-08-04T13:32:32.414Z,3.72
2022-08-04T13:35:01.987Z,3.63
2022-08-04T13:37:36.700Z,3.97
2022-08-04T13:40:06.594Z,4.13
2022-08-04T13:42:35.714Z,3.97
2022-08-04T13:45:06.381Z,3.67
2022-08-04T13:47:38.779Z,3.70
2022-08-04T13:50:32.382Z,3.83
2022-08-04T13:53:02.167Z,3.85
2022-08-04T13:55:34.332Z,4.00
2022-08-04T13:58:14.565Z,3.42
2022-08-04T14:00:46.943Z,3.83
2022-08-04T14:03:24.743Z,3.55
2022-08-04T14:06:18.005Z,3.60
2022-08-04T14:09:10.516Z,3.97
2022-08-04T14:12:06.143Z,3.60
2022-08-04T14:14:33.368Z,3.90
2022-08-04T14:17:03.574Z,3.75
2022-08-04T14:19:46.253Z,4.25
2022-08-04T14:22:36.045Z,3.78
2022-08-04T14:25:15.876Z,3.67
2022-08-04T14:27:51.102Z,3.37
2022-08-04T14:30:36.333Z,3.40
2022-08-04T14:34:02.283Z,3.83
2022-08-04T14:35:59.640Z,3.10
2022-08-04T14:38:45.505Z,3.67
2022-08-04T14:41:13.811Z,3.45
2022-08-04T14:43:46.783Z,3.70
2022-08-04T14:46:14.708Z,4.28
2022-08-04T14:49:01.229Z,4.20
2022-08-04T14:51:36.719Z,3.60
2022-08-04T14:54:08.923Z,3.53
2022-08-04T14:56:47.851Z,4.18
2022-08-04T14:59:15.126Z,3.60
2022-08-04T15:01:44.797Z,3.72
2022-08-04T15:04:27.374Z,3.85
2022-08-04T15:06:54.819Z,4.25
2022-08-04T15:09:22.762Z,3.72
2022-08-04T15:11:50.086Z,3.85
2022-08-04T15:14:36.894Z,3.50
2022-08-04T15:17:12.108Z,3.42
2022-08-04T15:19:56.316Z,3.95
2022-08-04T15:22:24.038Z,3.72
2022-08-04T15:24:54.976Z,3.95
2022-08-04T15:27:27.402Z,4.35
2022-08-04T15:30:01.923Z,4.00
2022-08-04T15:32:33.234Z,4.53
2022-08-04T15:35:08.713Z,3.75
2022-08-04T15:38:02.849Z,4.00
2022-08-04T15:40:42.993Z,3.95
2022-08-04T15:43:41.434Z,4.30
2022-08-04T15:46:44.219Z,4.47
2022-08-04T15:48:56.345Z,4.55
2022-08-04T15:51:31.828Z,4.15
2022-08-04T15:54:02.346Z,4.50
2022-08-04T15:56:31.377Z,4.18
2022-08-04T15:58:59.094Z,4.63
2022-08-04T16:01:27.995Z,3.85
2022-08-04T16:03:59.873Z,4.03
2022-08-04T16:06:29.669Z,4.03
2022-08-04T16:08:59.792Z,4.40
2022-08-04T16:11:40.499Z,4.20
2022-08-04T16:14:09.575Z,4.40
2022-08-04T16:16:36.684Z,4.22
2022-08-04T16:19:13.794Z,4.05
2022-08-04T16:21:50.012Z,3.70
2022-08-04T16:24:17.200Z,3.95
2022-08-04T16:26:54.361Z,4.15
2022-08-04T16:29:23.579Z,4.03
2022-08-04T16:32:06.472Z,3.88
2022-08-04T16:34:49.714Z,4.78
2022-08-04T16:37:20.352Z,4.82
2022-08-04T16:39:50.533Z,4.75
2022-08-04T16:42:27.889Z,4.40
2022-08-04T16:45:07.295Z,4.35
2022-08-04T16:47:49.879Z,4.38
2022-08-04T16:50:22.452Z,4.75
2022-08-04T16:52:52.483Z,4.85
2022-08-04T16:55:25.117Z,4.45
2022-08-04T16:57:54.649Z,4.28
2022-08-04T17:00:31.404Z,4.63
2022-08-04T17:03:01.559Z,4.18
2022-08-04T17:05:39.029Z,5.00
2022-08-04T17:10:56.390Z,4.35
2022-08-04T17:14:02.502Z,4.88
2022-08-04T17:16:18.312Z,4.95
2022-08-04T17:18:48.971Z,4.88
2022-08-04T17:21:20.063Z,4.95
2022-08-04T17:24:15.997Z,4.88
2022-08-04T17:26:41.678Z,4.80
2022-08-04T17:29:12.479Z,4.63
2022-08-04T17:31:47.992Z,4.65
2022-08-04T17:34:19.507Z,4.90
2022-08-04T17:36:48.258Z,5.20
2022-08-04T17:39:21.562Z,5.30
2022-08-04T17:41:55.075Z,4.85
2022-08-04T17:44:36.827Z,4.85
2022-08-04T17:47:19.619Z,5.13
2022-08-04T17:49:53.287Z,5.20
2022-08-04T17:52:41.225Z,5.45
2022-08-04T17:55:16.548Z,5.35
2022-08-04T17:57:52.412Z,5.47
2022-08-04T18:00:20.334Z,5.35
2022-08-04T18:02:54.852Z,6.60
2022-08-04T18:05:50.315Z,5.60
2022-08-04T18:08:37.932Z,5.60
2022-08-04T18:11:05.543Z,5.53
2022-08-04T18:13:42.750Z,5.88
2022-08-04T18:16:22.574Z,4.88
2022-08-04T18:19:11.099Z,5.57
2022-08-04T18:21:46.059Z,5.35
2022-08-04T18:24:34.727Z,5.57
2022-08-04T18:27:06.446Z,5.28
2022-08-04T18:29:39.159Z,5.13
2022-08-04T18:32:08.944Z,5.10
2022-08-04T18:34:40.910Z,5.65
2022-08-04T18:38:03.680Z,5.70
2022-08-04T18:40:28.152Z,5.38
2022-08-04T18:42:59.976Z,4.78
2022-08-04T18:45:33.793Z,5.78
2022-08-04T18:51:09.693Z,5.60
2022-08-04T18:53:37.979Z,5.35
2022-08-04T18:56:19.936Z,5.53
2022-08-04T18:58:59.856Z,6.00
2022-08-04T19:01:29.662Z,6.95
2022-08-04T19:04:33.456Z,5.78
2022-08-04T19:07:29.653Z,6.07
2022-08-04T19:09:54.024Z,5.68
2022-08-04T19:12:27.196Z,6.05
2022-08-04T19:14:58.821Z,6.15
2022-08-04T19:20:24.364Z,6.15
2022-08-04T19:24:26.875Z,5.40
2022-08-04T19:25:58.728Z,6.57
2022-08-04T19:28:35.505Z,6.70
2022-08-04T19:31:09.393Z,6.40
2022-08-04T19:33:58.442Z,6.53
2022-08-04T19:36:28.741Z,6.20
2022-08-04T19:41:29.618Z,6.72
2022-08-04T19:43:58.630Z,6.80
2022-08-04T19:46:28.606Z,6.32
2022-08-04T19:48:59.730Z,6.77
2022-08-04T19:51:32.998Z,7.07
2022-08-04T19:54:04.041Z,7.25
2022-08-04T19:56:40.261Z,6.90
2022-08-04T19:59:11.655Z,7.15
2022-08-04T20:01:44.641Z,7.73
2022-08-04T20:04:14.587Z,7.53
2022-08-04T20:06:42.893Z,6.88
2022-08-04T20:09:26.351Z,7.13
2022-08-04T20:11:55.910Z,7.60
2022-08-04T20:14:32.854Z,7.78
2022-08-04T20:17:09.974Z,7.78
2022-08-04T20:19:41.626Z,7.70
2022-08-04T20:22:51.848Z,8.07
2022-08-04T20:25:27.314Z,8.43
2022-08-04T20:28:00.585Z,8.00
2022-08-04T20:30:30.267Z,8.05
2022-08-04T20:32:57.956Z,8.13
2022-08-04T20:35:26.905Z,8.38
2022-08-04T20:38:00.820Z,8.10
2022-08-04T20:40:30.144Z,8.25
2022-08-04T20:42:59.089Z,8.00
2022-08-04T20:45:55.600Z,7.75
2022-08-04T20:48:14.289Z,7.38
2022-08-04T20:50:44.945Z,8.38
2022-08-04T20:53:16.510Z,8.57
2022-08-04T20:55:54.751Z,7.97
2022-08-04T20:58:27.667Z,8.35
2022-08-04T21:00:56.007Z,8.15
2022-08-04T21:03:49.701Z,7.88
2022-08-04T21:06:11.872Z,8.02
2022-08-04T21:08:39.096Z,7.68
2022-08-04T21:11:06.831Z,7.25
2022-08-04T21:13:44.458Z,8.05
2022-08-04T21:16:26.100Z,7.68
2022-08-04T21:19:13.165Z,7.95
2022-08-04T21:21:42.262Z,7.95
2022-08-04T21:24:10.283Z,9.48
2022-08-04T21:26:42.869Z,8.20
2022-08-04T21:29:13.833Z,8.70
2022-08-04T21:31:51.010Z,8.68
2022-08-04T21:34:38.297Z,8.80
2022-08-04T21:37:11.420Z,9.18
2022-08-04T21:39:50.192Z,8.93
2022-08-04T21:42:28.152Z,8.35
2022-08-04T21:44:58.151Z,7.82
2022-08-04T21:47:25.611Z,8.45
2022-08-04T21:49:56.650Z,9.18
2022-08-04T21:52:25.352Z,8.77
2022-08-04T21:54:54.711Z,8.30
2022-08-04T21:57:25.132Z,8.27
2022-08-04T21:59:53.100Z,7.60
2022-08-04T22:02:20.384Z,8.48
2022-08-04T22:04:48.959Z,8.43
2022-08-04T22:07:17.014Z,8.55
2022-08-04T22:09:45.644Z,8.57
2022-08-04T22:12:29.866Z,7.30
2022-08-04T22:14:59.765Z,8.65
2022-08-04T22:17:29.450Z,8.65
2022-08-04T22:20:04.493Z,7.93
2022-08-04T22:22:34.717Z,9.07
2022-08-04T22:25:12.400Z,8.93
2022-08-04T22:28:00.959Z,9.05
2022-08-04T22:30:33.185Z,8.23
2022-08-04T22:33:07.524Z,8.25
2022-08-04T22:35:44.185Z,8.63
2022-08-04T22:38:24.004Z,8.30
2022-08-04T22:41:02.440Z,9.07
2022-08-04T22:43:34.086Z,8.38
2022-08-04T22:46:05.452Z,8.48
2022-08-04T22:48:36.379Z,9.00
2022-08-04T22:51:05.984Z,9.43
2022-08-04T22:53:35.888Z,8.32
2022-08-04T22:56:10.734Z,7.93
2022-08-04T22:58:51.235Z,9.07
2022-08-04T23:01:18.887Z,10.63
2022-08-04T23:03:50.936Z,9.05
2022-08-04T23:06:24.973Z,8.23
2022-08-04T23:08:52.749Z,8.55
2022-08-04T23:11:19.928Z,8.73
2022-08-04T23:13:48.927Z,8.52
2022-08-04T23:16:17.077Z,8.20
2022-08-04T23:18:49.010Z,8.95
2022-08-04T23:21:24.205Z,8.27
2022-08-04T23:24:00.979Z,8.15
2022-08-04T23:26:31.548Z,8.75
2022-08-04T23:28:59.200Z,8.18
2022-08-04T23:31:40.572Z,8.23
2022-08-04T23:34:09.397Z,7.65
2022-08-04T23:36:40.480Z,8.80
2022-08-04T23:39:08.007Z,7.55
2022-08-04T23:41:53.791Z,6.95
2022-08-04T23:44:25.152Z,7.07
2022-08-04T23:47:01.256Z,7.45
2022-08-04T23:49:43.423Z,7.13
2022-08-04T23:52:27.637Z,7.30
2022-08-04T23:55:01.142Z,7.43
2022-08-04T23:57:31.075Z,7.10
